Time;durP1;ratioP1;P1;durP2;ratioP2;P2;SDS_P1;SDS_P2;PMS_P1;PMS_P2;Temp;Humidity;BMP_temperature;BMP_pressure;BME280_temperature;BME280_humidity;BME280_pressure;Samples;Min_cycle;Max_cycle;Signal;HPM_P1;HPM_P2
2021/09/14 00:01:40;;;;;;;2.60;1.60;;;16.80;98.00;;;;;;5032065;28;20518;-72
2021/09/14 00:04:07;;;;;;;2.67;1.70;;;16.70;98.00;;;;;;5031836;28;20461;-72
2021/09/14 00:06:39;;;;;;;2.10;1.37;;;16.70;98.00;;;;;;5032001;28;21020;-73
2021/09/14 00:09:06;;;;;;;1.50;1.50;;;16.70;98.00;;;;;;5015010;28;20459;-72
2021/09/14 00:11:35;;;;;;;2.00;1.37;;;16.50;98.00;;;;;;5032028;28;20459;-74
2021/09/14 00:14:02;;;;;;;4.07;1.63;;;16.50;98.00;;;;;;5031789;28;20458;-73
2021/09/14 00:16:30;;;;;;;2.60;1.97;;;16.60;98.00;;;;;;5031824;28;20517;-72
2021/09/14 00:18:57;;;;;;;2.43;1.80;;;16.60;98.00;;;;;;5031267;28;20470;-72
2021/09/14 00:21:25;;;;;;;1.40;1.40;;;16.60;98.00;;;;;;5030946;28;20522;-72
2021/09/14 00:23:52;;;;;;;1.47;1.47;;;16.50;98.00;;;;;;5029618;28;20513;-72
2021/09/14 00:26:19;;;;;;;1.40;1.20;;;16.40;98.00;;;;;;5030390;28;20497;-74
2021/09/14 00:28:46;;;;;;;2.00;1.33;;;16.50;98.00;;;;;;5031008;28;20458;-72
2021/09/14 00:31:13;;;;;;;1.40;1.40;;;16.40;98.00;;;;;;5030730;28;20508;-72
2021/09/14 00:33:41;;;;;;;1.73;1.40;;;16.30;98.00;;;;;;5031085;28;20463;-72
2021/09/14 00:36:09;;;;;;;1.40;1.40;;;16.30;98.00;;;;;;5031074;28;20509;-72
2021/09/14 00:38:36;;;;;;;1.63;1.33;;;16.20;98.00;;;;;;5030068;28;20458;-72
2021/09/14 00:41:03;;;;;;;1.40;1.30;;;16.20;98.00;;;;;;5030887;28;20475;-72
2021/09/14 00:43:30;;;;;;;3.00;1.50;;;16.30;98.00;;;;;;5030805;28;20463;-72
2021/09/14 00:45:57;;;;;;;2.23;1.70;;;16.20;98.00;;;;;;5029577;28;20462;-72
2021/09/14 00:48:27;;;;;;;1.27;1.27;;;16.20;98.00;;;;;;5030696;28;20511;-72
2021/09/14 00:50:56;;;;;;;1.30;1.27;;;16.30;98.00;;;;;;5030592;28;20463;-72
2021/09/14 00:53:26;;;;;;;1.50;1.50;;;16.50;98.00;;;;;;5030711;28;20493;-73
2021/09/14 00:55:56;;;;;;;1.50;1.40;;;16.40;98.00;;;;;;5030749;28;20508;-73
2021/09/14 00:58:23;;;;;;;1.50;1.40;;;16.30;98.00;;;;;;5030548;28;20466;-72
2021/09/14 01:00:50;;;;;;;1.53;1.40;;;16.30;98.00;;;;;;5030689;28;20730;-72
2021/09/14 01:03:17;;;;;;;2.30;1.33;;;16.20;98.00;;;;;;5030459;28;20501;-72
2021/09/14 01:05:45;;;;;;;2.10;1.70;;;16.20;98.00;;;;;;5029368;28;20519;-72
2021/09/14 01:08:14;;;;;;;1.30;1.20;;;16.20;98.00;;;;;;5030445;28;20553;-72
2021/09/14 01:10:42;;;;;;;1.63;1.40;;;16.20;98.00;;;;;;5030549;28;20501;-72
2021/09/14 01:13:10;;;;;;;2.33;1.70;;;16.20;98.00;;;;;;5030374;28;20520;-73
2021/09/14 01:15:37;;;;;;;1.50;1.40;;;16.20;98.00;;;;;;5030537;28;21034;-72
2021/09/14 01:18:05;;;;;;;1.83;1.33;;;16.30;98.00;;;;;;5029957;28;20984;-72
2021/09/14 01:20:35;;;;;;;1.43;1.40;;;16.20;98.00;;;;;;5030611;28;20463;-72
2021/09/14 01:23:04;;;;;;;1.67;1.47;;;16.20;98.00;;;;;;5029125;28;20486;-72
2021/09/14 01:25:31;;;;;;;1.63;1.43;;;16.20;98.00;;;;;;5030416;28;20462;-73
2021/09/14 01:28:02;;;;;;;1.63;1.63;;;16.30;98.00;;;;;;5030250;28;20949;-72
2021/09/14 01:30:29;;;;;;;1.40;1.30;;;16.20;98.00;;;;;;5030291;28;20508;-72
2021/09/14 01:32:56;;;;;;;1.70;1.43;;;16.10;98.00;;;;;;5030326;28;20517;-73
2021/09/14 01:35:27;;;;;;;1.70;1.30;;;16.10;98.00;;;;;;5030383;28;20466;-72
2021/09/14 01:37:54;;;;;;;1.30;1.30;;;16.20;98.00;;;;;;5030350;28;20450;-72
2021/09/14 01:40:23;;;;;;;1.63;1.57;;;16.20;98.00;;;;;;5033447;28;20883;-74
2021/09/14 01:42:50;;;;;;;1.40;1.30;;;16.20;98.00;;;;;;5033682;28;21005;-71
2021/09/14 01:45:17;;;;;;;1.40;1.30;;;16.20;98.00;;;;;;5033812;28;20508;-72
2021/09/14 01:47:45;;;;;;;2.27;1.60;;;16.20;98.00;;;;;;5033834;28;20520;-72
2021/09/14 01:50:15;;;;;;;1.83;1.57;;;16.20;98.00;;;;;;5033678;28;20458;-72
2021/09/14 01:52:52;;;;;;;1.77;1.77;;;16.00;98.00;;;;;;5033719;28;20455;-72
2021/09/14 01:55:19;;;;;;;1.20;1.10;;;15.90;98.00;;;;;;5033536;28;20943;-72
2021/09/14 01:57:49;;;;;;;1.87;1.57;;;16.00;98.00;;;;;;5033721;28;20461;-71
2021/09/14 02:00:20;;;;;;;2.37;1.87;;;16.00;98.00;;;;;;5033753;28;20470;-71
2021/09/14 02:05:51;;;;;;;1.80;1.70;;;16.00;98.00;;;;;;5024497;28;20516;-72
2021/09/14 02:08:38;;;;;;;2.40;1.70;;;15.90;98.00;;;;;;5033343;28;20462;-72
2021/09/14 03:01:02;;;;;;;1.50;1.33;;;15.40;98.00;;;;;;5032620;28;20449;-72
2021/09/14 03:03:30;;;;;;;2.47;1.50;;;15.30;98.00;;;;;;5031203;28;20489;-72
2021/09/14 03:05:58;;;;;;;1.43;1.20;;;15.30;98.00;;;;;;5033242;28;20882;-74
2021/09/14 03:08:25;;;;;;;1.93;1.50;;;15.30;98.00;;;;;;5033089;28;20458;-73
2021/09/14 03:10:52;;;;;;;1.40;1.23;;;15.20;98.00;;;;;;5032929;28;20511;-72
2021/09/14 03:13:19;;;;;;;1.63;1.60;;;15.20;98.00;;;;;;5032152;28;20455;-73
2021/09/14 03:15:46;;;;;;;2.30;1.53;;;15.10;98.00;;;;;;5031267;28;20458;-72
2021/09/14 03:18:17;;;;;;;2.20;1.60;;;15.10;98.00;;;;;;5032261;28;21022;-72
2021/09/14 03:20:45;;;;;;;2.80;1.70;;;15.20;98.00;;;;;;5032231;28;20480;-72
2021/09/14 03:23:12;;;;;;;1.80;1.30;;;15.20;98.00;;;;;;5031016;28;20514;-73
2021/09/14 03:25:39;;;;;;;2.00;1.60;;;15.20;98.00;;;;;;5032191;28;20873;-73
2021/09/14 03:28:07;;;;;;;1.60;1.30;;;15.30;98.00;;;;;;5031909;28;20520;-72
2021/09/14 03:30:34;;;;;;;2.30;1.50;;;15.20;98.00;;;;;;5031869;28;20515;-72
2021/09/14 03:33:03;;;;;;;1.90;1.57;;;15.40;98.00;;;;;;5031613;28;21121;-73
2021/09/14 03:35:30;;;;;;;1.60;1.47;;;15.40;98.00;;;;;;5031750;28;20793;-72
2021/09/14 03:37:58;;;;;;;1.70;1.50;;;15.40;98.00;;;;;;5031694;28;20536;-72
2021/09/14 03:40:25;;;;;;;2.03;1.30;;;15.40;98.00;;;;;;5031668;28;20496;-73
2021/09/14 03:42:52;;;;;;;1.53;1.50;;;15.30;98.00;;;;;;5031632;28;20571;-73
2021/09/14 03:45:22;;;;;;;1.70;1.60;;;15.30;98.00;;;;;;5031625;28;20459;-73
2021/09/14 03:47:50;;;;;;;1.47;1.33;;;15.40;98.00;;;;;;5031424;28;20458;-73
2021/09/14 03:50:17;;;;;;;1.97;1.57;;;15.30;98.00;;;;;;5031488;28;21031;-71
2021/09/14 03:52:44;;;;;;;1.47;1.10;;;15.20;98.00;;;;;;5031440;28;20462;-72
2021/09/14 03:55:12;;;;;;;1.37;1.20;;;15.20;98.00;;;;;;5031424;28;20462;-71
2021/09/14 03:57:39;;;;;;;1.97;1.73;;;15.30;98.00;;;;;;5031193;28;20469;-72
2021/09/14 04:00:08;;;;;;;1.63;1.47;;;15.30;98.00;;;;;;5031297;28;20513;-72
2021/09/14 04:02:38;;;;;;;1.40;1.30;;;15.40;98.00;;;;;;5030429;28;20490;-71
2021/09/14 04:05:23;;;;;;;2.90;2.10;;;15.20;98.00;;;;;;5031113;28;20489;-73
2021/09/14 04:07:52;;;;;;;1.40;1.30;;;15.10;98.00;;;;;;5031062;28;20461;-72
2021/09/14 04:10:21;;;;;;;1.67;1.20;;;15.10;98.00;;;;;;5031176;28;20462;-72
2021/09/14 04:12:48;;;;;;;3.03;1.70;;;15.20;98.00;;;;;;5031068;28;20465;-71
2021/09/14 04:15:15;;;;;;;1.50;1.33;;;15.10;98.00;;;;;;5031205;28;20473;-72
2021/09/14 04:17:42;;;;;;;1.93;1.83;;;15.20;98.00;;;;;;5031137;28;20930;-72
2021/09/14 04:20:11;;;;;;;1.63;1.43;;;15.20;98.00;;;;;;5029688;28;20474;-72
2021/09/14 04:22:44;;;;;;;2.03;1.47;;;15.20;98.00;;;;;;5030871;28;20528;-72
2021/09/14 04:25:12;;;;;;;2.07;1.60;;;15.30;98.00;;;;;;5031108;28;20992;-71
2021/09/14 04:27:41;;;;;;;1.97;1.70;;;15.30;98.00;;;;;;5030933;28;20458;-71
2021/09/14 04:30:10;;;;;;;1.67;1.30;;;15.40;98.00;;;;;;5031124;28;20454;-72
2021/09/14 04:32:37;;;;;;;3.40;1.80;;;15.30;98.00;;;;;;5030922;28;20502;-73
2021/09/14 04:35:05;;;;;;;1.70;1.40;;;15.20;98.00;;;;;;5031106;28;20486;-71
2021/09/14 04:37:32;;;;;;;1.20;1.17;;;15.20;98.00;;;;;;5031071;28;20454;-71
2021/09/14 04:39:59;;;;;;;1.70;1.50;;;15.10;98.00;;;;;;5030822;28;20523;-73
2021/09/14 04:42:26;;;;;;;3.23;1.60;;;15.20;98.00;;;;;;5030979;28;20588;-71
2021/09/14 04:44:55;;;;;;;1.43;1.30;;;15.30;98.00;;;;;;5030840;28;20761;-71
2021/09/14 04:47:22;;;;;;;2.20;1.80;;;15.40;98.00;;;;;;5030805;28;20461;-72
2021/09/14 04:49:50;;;;;;;1.87;1.60;;;15.20;98.00;;;;;;5030716;28;20544;-71
2021/09/14 04:52:16;;;;;;;2.47;1.50;;;15.10;98.00;;;;;;5030574;28;20457;-71
2021/09/14 04:54:43;;;;;;;3.57;2.80;;;15.00;98.00;;;;;;5030688;28;20488;-71
2021/09/14 04:57:10;;;;;;;8.20;2.53;;;15.00;98.00;;;;;;5030788;28;20519;-71
2021/09/14 04:59:37;;;;;;;1.90;1.40;;;15.10;98.00;;;;;;5030438;28;20462;-70
2021/09/14 05:02:06;;;;;;;1.83;1.83;;;15.10;98.00;;;;;;5029516;28;20528;-70
2021/09/14 05:04:33;;;;;;;1.30;1.20;;;15.10;98.00;;;;;;5030675;28;20443;-71
2021/09/14 05:07:00;;;;;;;2.53;2.00;;;15.00;98.00;;;;;;5030643;28;20483;-71
2021/09/14 05:09:27;;;;;;;1.70;1.60;;;14.90;98.00;;;;;;5030448;28;20522;-71
2021/09/14 05:11:54;;;;;;;1.57;1.33;;;14.90;98.00;;;;;;5030580;28;20494;-71
2021/09/14 05:14:21;;;;;;;1.80;1.47;;;14.90;98.00;;;;;;5032635;28;20681;-70
2021/09/14 05:16:49;;;;;;;1.60;1.43;;;14.90;98.00;;;;;;5034241;28;20960;-71
2021/09/14 05:19:29;;;;;;;1.40;1.20;;;15.00;98.00;;;;;;5034211;28;20549;-70
2021/09/14 05:22:00;;;;;;;1.47;1.40;;;15.00;98.00;;;;;;5034217;28;20457;-72
2021/09/14 05:24:27;;;;;;;2.03;1.30;;;15.00;98.00;;;;;;5033785;28;20964;-70
2021/09/14 05:26:55;;;;;;;3.63;1.90;;;15.00;98.00;;;;;;5032890;28;20546;-70
2021/09/14 05:29:22;;;;;;;2.03;1.50;;;15.10;98.00;;;;;;5034179;28;20493;-72
2021/09/14 05:31:50;;;;;;;2.97;1.73;;;15.10;98.00;;;;;;5033920;28;20486;-70
2021/09/14 05:34:19;;;;;;;1.70;1.40;;;15.10;98.00;;;;;;5032703;28;20516;-72
2021/09/14 05:36:46;;;;;;;1.30;1.10;;;15.10;98.00;;;;;;5032514;28;20465;-71
2021/09/14 05:39:15;;;;;;;2.10;1.60;;;15.00;98.00;;;;;;5034064;28;20486;-70
2021/09/14 05:41:42;;;;;;;1.87;1.33;;;15.10;98.00;;;;;;5034103;28;20455;-70
2021/09/14 05:44:09;;;;;;;1.20;1.00;;;15.20;98.00;;;;;;5033903;28;20536;-70
2021/09/14 05:46:37;;;;;;;1.60;1.50;;;15.20;98.00;;;;;;5033873;28;20537;-71
2021/09/14 05:49:04;;;;;;;2.57;1.70;;;15.20;98.00;;;;;;5033615;28;20461;-70
2021/09/14 05:51:32;;;;;;;2.03;1.90;;;15.30;98.00;;;;;;5033721;28;20465;-70
2021/09/14 05:54:00;;;;;;;1.77;1.60;;;15.30;98.00;;;;;;5033260;28;20924;-70
2021/09/14 05:56:31;;;;;;;2.63;1.47;;;15.30;98.00;;;;;;5033712;28;20462;-71
2021/09/14 05:58:59;;;;;;;1.20;1.20;;;15.40;98.00;;;;;;5033528;28;20986;-71
2021/09/14 06:01:27;;;;;;;2.77;1.77;;;15.40;98.00;;;;;;5033854;28;20502;-70
2021/09/14 06:03:54;;;;;;;1.43;1.37;;;15.40;98.00;;;;;;5033478;28;20561;-71
2021/09/14 06:06:22;;;;;;;2.60;1.67;;;15.30;98.00;;;;;;5033601;28;20953;-71
2021/09/14 06:08:51;;;;;;;1.63;1.50;;;15.20;98.00;;;;;;5033057;28;20505;-72
2021/09/14 06:11:18;;;;;;;5.43;1.60;;;15.20;98.00;;;;;;5033429;28;20867;-70
2021/09/14 06:13:45;;;;;;;1.73;1.20;;;15.20;98.00;;;;;;5031861;28;20462;-70
2021/09/14 06:16:15;;;;;;;1.90;1.50;;;15.20;98.00;;;;;;5033273;28;20544;-71
2021/09/14 06:18:42;;;;;;;2.20;1.53;;;15.20;98.00;;;;;;5031631;28;20498;-71
2021/09/14 06:21:12;;;;;;;1.57;1.30;;;15.30;98.00;;;;;;5032985;28;20526;-70
2021/09/14 06:23:39;;;;;;;1.93;1.70;;;15.40;98.00;;;;;;5032641;28;20497;-71
2021/09/14 06:26:08;;;;;;;1.67;1.57;;;15.50;98.00;;;;;;5032403;28;20469;-70
2021/09/14 06:28:35;;;;;;;1.80;1.73;;;15.80;98.00;;;;;;5033037;28;20609;-71
2021/09/14 06:31:02;;;;;;;1.60;1.60;;;15.80;98.00;;;;;;5031666;28;20459;-70
2021/09/14 06:33:29;;;;;;;2.13;1.20;;;15.80;98.00;;;;;;5032815;28;20458;-70
2021/09/14 06:35:55;;;;;;;2.00;1.80;;;15.80;98.00;;;;;;5032817;28;20486;-71
2021/09/14 06:38:22;;;;;;;1.70;1.70;;;15.80;98.00;;;;;;5032691;28;20497;-70
2021/09/14 06:40:50;;;;;;;1.70;1.47;;;15.80;98.00;;;;;;5031369;28;20892;-71
2021/09/14 06:43:18;;;;;;;1.60;1.57;;;15.80;98.00;;;;;;5032624;28;20478;-71
2021/09/14 06:45:46;;;;;;;1.87;1.40;;;15.90;98.00;;;;;;5032661;28;20469;-69
2021/09/14 06:48:16;;;;;;;1.70;1.50;;;15.90;98.00;;;;;;5032556;28;20541;-72
2021/09/14 06:50:43;;;;;;;2.17;1.60;;;16.10;98.00;;;;;;5032723;28;20455;-71
2021/09/14 06:53:12;;;;;;;1.43;1.40;;;16.20;98.00;;;;;;5032430;28;20497;-72
2021/09/14 06:55:39;;;;;;;1.20;1.13;;;16.20;98.00;;;;;;5032404;28;20469;-71
2021/09/14 06:58:06;;;;;;;1.30;1.30;;;16.30;98.00;;;;;;5032223;28;20892;-70
2021/09/14 07:00:35;;;;;;;2.17;1.87;;;16.50;98.00;;;;;;5032503;28;20512;-71
2021/09/14 07:03:04;;;;;;;1.73;1.63;;;16.50;98.00;;;;;;5032179;28;20486;-71
2021/09/14 07:05:31;;;;;;;1.73;1.70;;;16.60;98.00;;;;;;5032253;28;20469;-71
2021/09/14 07:07:59;;;;;;;2.00;1.50;;;16.60;98.00;;;;;;5032110;28;20517;-72
2021/09/14 07:10:26;;;;;;;2.30;1.63;;;16.80;98.00;;;;;;5032165;28;20474;-72
2021/09/14 07:12:55;;;;;;;2.50;1.93;;;16.90;98.00;;;;;;5032073;28;20486;-70
2021/09/14 07:15:22;;;;;;;1.90;1.70;;;17.00;98.00;;;;;;5033310;28;20482;-71
2021/09/14 07:17:51;;;;;;;2.90;2.27;;;17.00;98.00;;;;;;5031827;28;21201;-72
2021/09/14 07:20:18;;;;;;;2.33;1.70;;;17.20;98.00;;;;;;5029451;28;20462;-73
2021/09/14 07:22:45;;;;;;;2.77;1.93;;;17.40;98.00;;;;;;5029675;28;20490;-70
2021/09/14 07:25:12;;;;;;;1.30;1.30;;;17.40;98.00;;;;;;5029388;28;20486;-70
2021/09/14 07:27:40;;;;;;;1.83;1.40;;;17.50;98.00;;;;;;5029633;28;20451;-70
2021/09/14 07:30:07;;;;;;;1.90;1.60;;;17.50;98.00;;;;;;5029198;28;20481;-71
2021/09/14 07:32:35;;;;;;;1.50;1.47;;;17.60;98.00;;;;;;5029330;28;21050;-70
2021/09/14 07:35:04;;;;;;;2.53;2.03;;;17.70;98.00;;;;;;5028976;28;20450;-70
2021/09/14 07:37:38;;;;;;;1.70;1.63;;;17.90;98.00;;;;;;5029433;28;21079;-72
2021/09/14 07:40:06;;;;;;;1.97;1.77;;;18.00;98.00;;;;;;5028914;28;20494;-72
2021/09/14 07:42:33;;;;;;;1.50;1.33;;;18.10;98.00;;;;;;5029743;28;20946;-70
2021/09/14 07:45:00;;;;;;;1.70;1.57;;;18.20;98.00;;;;;;5029945;28;20898;-70
2021/09/14 07:47:27;;;;;;;1.90;1.60;;;18.30;98.00;;;;;;5028862;28;20505;-70
2021/09/14 07:49:54;;;;;;;1.70;1.60;;;18.40;98.00;;;;;;5026995;28;20541;-70
2021/09/14 07:52:23;;;;;;;2.60;1.90;;;18.50;98.00;;;;;;5028832;28;20482;-71
2021/09/14 07:54:50;;;;;;;1.40;1.40;;;18.70;98.00;;;;;;5028582;28;20455;-70
2021/09/14 07:57:17;;;;;;;3.10;1.40;;;18.80;98.00;;;;;;5028625;28;20458;-71
2021/09/14 07:59:44;;;;;;;1.43;1.30;;;18.90;98.00;;;;;;5030235;28;20536;-71
2021/09/14 08:02:11;;;;;;;4.43;2.10;;;19.10;98.00;;;;;;5028948;28;20456;-70
2021/09/14 08:04:38;;;;;;;1.90;1.77;;;19.20;98.00;;;;;;5027927;28;20498;-70
2021/09/14 08:07:06;;;;;;;2.07;1.87;;;19.30;98.00;;;;;;5028341;28;20486;-70
2021/09/14 08:09:34;;;;;;;2.73;1.87;;;19.50;98.00;;;;;;5028670;28;20455;-70
2021/09/14 08:12:01;;;;;;;1.60;1.53;;;19.70;98.00;;;;;;5028374;28;20463;-71
2021/09/14 08:14:28;;;;;;;2.87;2.20;;;19.70;98.00;;;;;;5027261;28;20482;-70
2021/09/14 08:16:57;;;;;;;2.10;1.73;;;19.80;98.00;;;;;;5028863;28;20501;-71
2021/09/14 08:19:24;;;;;;;1.90;1.83;;;19.90;98.00;;;;;;5029058;28;20472;-70
2021/09/14 08:21:51;;;;;;;1.43;1.30;;;20.00;98.00;;;;;;5024135;28;20447;-71
2021/09/14 08:24:19;;;;;;;2.70;2.37;;;20.10;98.00;;;;;;5026993;28;20494;-71
2021/09/14 08:26:48;;;;;;;2.80;1.80;;;20.20;98.00;;;;;;5028620;28;20505;-71
2021/09/14 08:29:15;;;;;;;1.60;1.50;;;20.30;98.00;;;;;;5028244;28;20455;-70
2021/09/14 08:31:45;;;;;;;1.83;1.67;;;20.60;98.00;;;;;;5028683;28;20489;-72
2021/09/14 08:34:12;;;;;;;2.07;1.50;;;20.90;98.00;;;;;;5028583;28;20498;-69
2021/09/14 08:36:39;;;;;;;1.90;1.53;;;21.10;98.00;;;;;;5028641;28;20876;-70
2021/09/14 08:39:06;;;;;;;2.13;1.97;;;21.40;98.00;;;;;;5028614;28;20459;-72
2021/09/14 08:41:33;;;;;;;2.10;1.70;;;21.50;98.00;;;;;;5027524;28;20482;-71
2021/09/14 08:44:01;;;;;;;2.20;1.83;;;21.60;98.00;;;;;;5028623;28;20586;-70
2021/09/14 08:46:28;;;;;;;3.50;2.33;;;21.70;98.00;;;;;;5028561;28;20484;-70
2021/09/14 08:48:56;;;;;;;1.67;1.60;;;21.80;98.00;;;;;;5031417;28;20491;-70
2021/09/14 08:51:22;;;;;;;2.93;2.47;;;22.00;98.00;;;;;;5029165;28;20454;-70
2021/09/14 08:53:49;;;;;;;2.07;1.77;;;22.20;98.00;;;;;;5032454;28;20461;-70
2021/09/14 08:56:16;;;;;;;2.87;1.80;;;22.40;98.00;;;;;;5032248;28;20965;-69
2021/09/14 08:58:43;;;;;;;3.53;2.20;;;22.50;98.00;;;;;;5032547;28;20454;-70
2021/09/14 09:01:13;;;;;;;1.90;1.60;;;22.60;98.00;;;;;;5032314;28;21205;-70
2021/09/14 09:03:42;;;;;;;3.07;1.63;;;22.70;98.00;;;;;;5032053;28;20529;-71
2021/09/14 09:06:12;;;;;;;2.70;1.90;;;22.90;98.00;;;;;;5031969;28;21374;-70
2021/09/14 09:08:40;;;;;;;2.07;1.60;;;23.00;98.00;;;;;;5032170;28;20870;-70
2021/09/14 09:11:09;;;;;;;2.40;1.73;;;23.10;98.00;;;;;;5030504;28;20669;-71
2021/09/14 09:13:48;;;;;;;2.63;1.93;;;23.20;98.00;;;;;;5031859;28;20528;-71
2021/09/14 09:16:20;;;;;;;2.27;1.90;;;23.40;98.00;;;;;;5029321;28;20549;-70
2021/09/14 09:18:49;;;;;;;2.70;1.90;;;23.50;98.00;;;;;;5031774;28;20988;-72
2021/09/14 09:21:16;;;;;;;3.03;1.70;;;23.70;98.00;;;;;;5032019;28;20465;-71
2021/09/14 09:23:43;;;;;;;2.17;1.60;;;23.90;98.00;;;;;;5030668;28;20572;-69
2021/09/14 09:26:12;;;;;;;2.60;1.63;;;24.10;98.00;;;;;;5031703;28;20455;-70
2021/09/14 09:28:39;;;;;;;3.77;2.33;;;24.30;98.00;;;;;;5031789;28;20460;-69
2021/09/14 09:31:11;;;;;;;2.10;1.73;;;24.40;98.00;;;;;;5031528;28;20505;-70
2021/09/14 09:33:40;;;;;;;3.10;1.93;;;24.60;98.00;;;;;;5031354;28;20462;-70
2021/09/14 09:36:08;;;;;;;3.07;2.33;;;24.80;98.00;;;;;;5031444;28;20509;-71
2021/09/14 09:38:57;;;;;;;2.60;2.20;;;25.00;98.00;;;;;;5031324;28;20516;-70
2021/09/14 09:41:24;;;;;;;4.37;2.03;;;25.00;98.00;;;;;;5031782;28;20454;-70
2021/09/14 09:43:51;;;;;;;1.90;1.50;;;25.20;98.00;;;;;;5031166;28;20505;-71
2021/09/14 09:46:20;;;;;;;2.43;1.80;;;25.30;98.00;;;;;;5031401;28;20525;-70
2021/09/14 09:48:50;;;;;;;3.30;2.40;;;25.50;98.00;;;;;;5031118;28;20486;-70
2021/09/14 09:51:17;;;;;;;2.80;2.00;;;25.60;98.00;;;;;;5029436;28;20634;-72
2021/09/14 09:53:46;;;;;;;3.27;1.93;;;25.60;98.00;;;;;;5031668;28;20554;-71
2021/09/14 09:56:13;;;;;;;3.07;1.80;;;25.80;98.00;;;;;;5031665;28;20509;-71
2021/09/14 09:58:42;;;;;;;3.40;2.27;;;25.90;98.00;;;;;;5031132;28;20458;-71
2021/09/14 10:01:17;;;;;;;2.10;1.97;;;26.20;98.00;;;;;;5031055;28;20466;-71
2021/09/14 10:03:53;;;;;;;2.10;1.87;;;26.30;96.20;;;;;;5031079;28;20508;-70
2021/09/14 10:06:21;;;;;;;2.90;2.20;;;26.40;96.00;;;;;;5032076;28;20458;-71
2021/09/14 10:08:53;;;;;;;2.70;1.87;;;26.60;96.60;;;;;;5023954;28;20462;-72
2021/09/14 10:11:30;;;;;;;2.30;2.00;;;26.70;93.10;;;;;;5024163;28;20498;-70
2021/09/14 10:14:22;;;;;;;3.10;2.07;;;26.60;92.80;;;;;;5032213;28;20556;-71
2021/09/14 10:16:49;;;;;;;4.53;2.60;;;26.70;93.00;;;;;;5030146;28;20451;-71
2021/09/14 10:19:26;;;;;;;2.93;2.00;;;26.90;93.90;;;;;;5030995;28;20560;-71
2021/09/14 10:22:01;;;;;;;2.77;2.07;;;27.20;94.00;;;;;;5031142;28;20459;-72
2021/09/14 10:24:29;;;;;;;2.40;1.93;;;27.30;91.90;;;;;;5030698;28;21017;-71
2021/09/14 10:27:04;;;;;;;2.60;1.97;;;27.60;92.00;;;;;;5030942;28;20831;-71
2021/09/14 10:29:32;;;;;;;3.20;2.43;;;27.70;90.30;;;;;;5030621;28;21007;-70
2021/09/14 10:32:03;;;;;;;2.77;2.00;;;27.90;91.00;;;;;;5030597;28;20985;-72
2021/09/14 10:34:33;;;;;;;4.50;2.13;;;27.80;89.10;;;;;;5030677;28;20466;-71
2021/09/14 10:37:02;;;;;;;2.83;2.30;;;28.00;89.80;;;;;;5030468;28;20517;-73
2021/09/14 10:39:33;;;;;;;2.40;2.00;;;28.10;89.50;;;;;;5030606;28;20500;-74
2021/09/14 10:42:01;;;;;;;2.53;1.90;;;28.20;89.20;;;;;;5030638;28;20487;-72
2021/09/14 10:44:29;;;;;;;2.70;2.10;;;28.30;89.30;;;;;;5029270;28;20556;-73
2021/09/14 10:47:10;;;;;;;4.07;2.33;;;28.30;90.60;;;;;;5029086;28;20474;-72
2021/09/14 10:49:47;;;;;;;3.73;2.33;;;28.30;89.50;;;;;;5020282;28;20532;-72
2021/09/14 10:52:17;;;;;;;1.87;1.77;;;28.30;91.50;;;;;;5032478;28;20512;-72
2021/09/14 10:54:47;;;;;;;2.90;2.37;;;28.50;90.50;;;;;;5032376;28;20486;-71
2021/09/14 10:57:14;;;;;;;2.27;1.93;;;28.40;88.40;;;;;;5032244;28;20525;-70
2021/09/14 10:59:49;;;;;;;3.30;1.93;;;28.30;89.20;;;;;;5032418;28;20454;-71
2021/09/14 11:02:16;;;;;;;2.87;1.90;;;28.30;88.70;;;;;;5032311;28;20460;-69
2021/09/14 11:04:45;;;;;;;2.57;1.90;;;28.50;89.50;;;;;;5032362;28;21151;-70
2021/09/14 11:07:17;;;;;;;2.50;2.00;;;28.80;88.00;;;;;;5032250;28;20516;-71
2021/09/14 11:09:44;;;;;;;3.47;2.13;;;29.00;86.70;;;;;;5032353;28;20874;-72
2021/09/14 11:12:19;;;;;;;3.00;1.93;;;29.00;87.10;;;;;;5031912;28;20466;-71
2021/09/14 11:14:46;;;;;;;2.90;2.23;;;29.20;86.50;;;;;;5032051;28;20450;-71
2021/09/14 11:17:23;;;;;;;2.10;1.70;;;29.10;86.00;;;;;;5031942;28;20528;-71
2021/09/14 11:19:52;;;;;;;3.10;2.00;;;29.10;87.40;;;;;;5032038;28;20557;-70
2021/09/14 11:22:30;;;;;;;2.57;2.00;;;29.20;87.30;;;;;;5031987;28;20962;-71
2021/09/14 11:24:58;;;;;;;3.03;2.20;;;29.40;86.10;;;;;;5032366;28;20537;-72
2021/09/14 11:27:25;;;;;;;3.50;2.10;;;29.70;87.50;;;;;;5032207;28;20455;-73
2021/09/14 11:29:52;;;;;;;2.63;2.20;;;29.80;86.90;;;;;;5031846;28;20458;-71
2021/09/14 11:32:20;;;;;;;2.50;1.93;;;29.60;86.90;;;;;;5032306;28;20556;-73
2021/09/14 11:34:49;;;;;;;3.30;2.10;;;29.40;87.70;;;;;;5031819;28;20451;-71
2021/09/14 11:37:27;;;;;;;2.83;2.20;;;29.40;87.70;;;;;;5031955;28;20505;-71
2021/09/14 11:39:54;;;;;;;2.57;2.20;;;29.60;88.70;;;;;;5031668;28;20516;-71
2021/09/14 11:42:21;;;;;;;2.60;1.90;;;29.80;87.40;;;;;;5014080;28;20789;-72
2021/09/14 11:44:49;;;;;;;2.83;2.20;;;29.70;86.70;;;;;;5030306;28;20544;-71
2021/09/14 11:47:25;;;;;;;4.10;2.43;;;29.60;87.00;;;;;;5030374;28;20450;-71
2021/09/14 11:49:53;;;;;;;3.00;2.50;;;29.50;86.20;;;;;;5031431;28;20494;-72
2021/09/14 11:52:20;;;;;;;2.87;2.20;;;29.40;86.60;;;;;;5031390;28;20454;-71
2021/09/14 11:54:48;;;;;;;2.70;2.20;;;29.70;86.70;;;;;;5031523;28;20482;-71
2021/09/14 11:57:16;;;;;;;3.40;2.10;;;29.50;87.60;;;;;;5031372;28;20459;-73
2021/09/14 11:59:43;;;;;;;3.20;2.40;;;29.80;86.40;;;;;;5031494;28;20551;-73
2021/09/14 12:02:10;;;;;;;2.23;2.00;;;29.50;87.70;;;;;;5031302;28;20543;-71
2021/09/14 12:04:37;;;;;;;3.00;2.07;;;29.60;87.20;;;;;;5031096;28;20541;-72
2021/09/14 12:07:07;;;;;;;3.70;2.23;;;29.60;87.60;;;;;;5031361;28;20875;-70
2021/09/14 12:09:34;;;;;;;2.37;1.93;;;29.50;87.50;;;;;;5031023;28;20459;-71
2021/09/14 12:12:04;;;;;;;3.00;1.93;;;29.40;86.80;;;;;;5031159;28;20478;-71
2021/09/14 12:14:31;;;;;;;3.10;2.30;;;29.40;87.10;;;;;;5031167;28;20504;-72
2021/09/14 12:17:02;;;;;;;4.40;2.37;;;29.20;87.40;;;;;;5031300;28;21074;-73
2021/09/14 12:19:29;;;;;;;4.37;3.10;;;28.90;88.60;;;;;;5030677;28;20561;-72
2021/09/14 12:21:56;;;;;;;3.87;2.70;;;28.70;89.40;;;;;;5030165;28;20451;-72
2021/09/14 12:24:23;;;;;;;3.43;2.20;;;28.40;91.90;;;;;;5030609;28;20455;-72
2021/09/14 12:26:52;;;;;;;3.60;2.43;;;28.30;89.90;;;;;;5030873;28;20486;-72
2021/09/14 12:29:20;;;;;;;4.10;2.20;;;28.40;91.30;;;;;;5030625;28;20467;-73
2021/09/14 12:31:48;;;;;;;4.57;2.80;;;28.50;91.40;;;;;;5030779;28;20953;-74
2021/09/14 12:34:16;;;;;;;3.97;2.40;;;28.50;90.90;;;;;;5030631;28;20555;-72
2021/09/14 12:36:45;;;;;;;3.17;2.37;;;28.60;90.50;;;;;;5030899;28;20984;-72
2021/09/14 12:39:13;;;;;;;2.90;2.00;;;28.70;90.20;;;;;;5030806;28;20454;-72
2021/09/14 12:41:40;;;;;;;3.80;2.40;;;28.70;90.70;;;;;;5030803;28;20458;-72
2021/09/14 12:44:08;;;;;;;3.43;2.33;;;28.70;90.10;;;;;;5030803;28;20466;-74
2021/09/14 12:46:38;;;;;;;2.93;2.00;;;28.60;90.50;;;;;;5030943;28;20492;-73
2021/09/14 12:49:05;;;;;;;5.13;2.40;;;28.50;89.70;;;;;;5030932;28;20459;-71
2021/09/14 12:51:32;;;;;;;2.70;1.97;;;28.10;92.00;;;;;;5029582;28;20996;-72
2021/09/14 12:53:59;;;;;;;2.97;2.27;;;28.10;94.40;;;;;;5030794;28;20509;-72
2021/09/14 12:56:26;;;;;;;3.00;2.13;;;28.10;95.00;;;;;;5030943;28;20548;-73
2021/09/14 12:58:53;;;;;;;2.50;2.00;;;28.10;93.40;;;;;;5030620;28;20548;-72
2021/09/14 13:01:20;;;;;;;3.47;2.37;;;28.20;92.30;;;;;;5030823;28;20961;-73
2021/09/14 13:03:48;;;;;;;3.30;2.20;;;28.30;91.90;;;;;;5030544;28;20548;-72
2021/09/14 13:06:16;;;;;;;4.30;2.57;;;28.30;91.90;;;;;;5030684;28;20483;-72
2021/09/14 13:08:45;;;;;;;2.90;2.17;;;28.70;92.50;;;;;;5030848;28;20831;-72
2021/09/14 13:11:12;;;;;;;3.20;2.37;;;29.10;91.00;;;;;;5030977;28;20925;-73
2021/09/14 13:16:24;;;;;;;4.43;2.77;;;29.70;89.80;;;;;;5031243;28;20549;-74
2021/09/14 13:18:53;;;;;;;3.50;2.40;;;29.90;87.80;;;;;;5030908;28;20508;-71
2021/09/14 13:21:53;;;;;;;3.80;2.30;;;29.90;86.40;;;;;;5031145;28;20459;-72
2021/09/14 13:24:20;;;;;;;3.10;2.40;;;29.90;85.40;;;;;;5030867;28;20481;-72
2021/09/14 13:26:47;;;;;;;3.10;2.47;;;29.70;85.40;;;;;;5030997;28;20525;-72
2021/09/14 13:29:14;;;;;;;3.20;2.30;;;29.70;85.70;;;;;;5030878;28;20494;-71
2021/09/14 13:31:41;;;;;;;3.20;2.27;;;29.90;86.10;;;;;;5029745;28;21012;-72
2021/09/14 13:34:09;;;;;;;2.43;2.13;;;30.10;85.40;;;;;;5032478;28;20541;-71
2021/09/14 13:36:42;;;;;;;10.10;2.33;;;30.20;86.90;;;;;;5034762;28;20482;-70
2021/09/14 13:39:09;;;;;;;4.43;2.50;;;30.40;86.60;;;;;;5034454;28;20469;-71
2021/09/14 13:41:40;;;;;;;3.07;2.50;;;30.60;84.40;;;;;;5034332;28;20490;-71
2021/09/14 13:46:52;;;;;;;2.77;2.00;;;30.90;84.70;;;;;;5034737;28;20826;-69
2021/09/14 13:49:21;;;;;;;4.30;2.43;;;31.10;84.90;;;;;;5034581;28;20462;-72
2021/09/14 13:51:53;;;;;;;2.70;2.10;;;31.20;86.40;;;;;;5034556;28;20537;-71
2021/09/14 13:54:21;;;;;;;2.80;2.13;;;31.40;83.20;;;;;;5034470;28;21007;-71